createdAt,value
2018-02-06T04:38:32.508Z,16.47
2018-02-06T04:39:31.476Z,16.50
2018-02-06T04:40:31.716Z,16.60
2018-02-06T04:41:31.679Z,17.16
2018-02-06T04:42:34.868Z,17.12
2018-02-06T04:43:34.418Z,16.57
2018-02-06T04:44:31.650Z,16.57
2018-02-06T04:45:34.005Z,17.15
2018-02-06T04:46:31.727Z,16.89
2018-02-06T04:47:30.875Z,16.86
2018-02-06T04:48:30.864Z,16.39
2018-02-06T04:49:30.852Z,16.99
2018-02-06T04:50:30.859Z,16.34
2018-02-06T04:51:30.843Z,16.04
2018-02-06T04:52:30.823Z,16.95
2018-02-06T04:53:30.806Z,16.16
2018-02-06T04:54:30.794Z,16.53
2018-02-06T04:55:30.801Z,16.63
2018-02-06T04:56:30.800Z,17.02
2018-02-06T04:57:30.753Z,16.70
2018-02-06T04:58:30.754Z,17.43
2018-02-06T04:59:30.741Z,17.18
2018-02-06T05:00:30.728Z,17.33
2018-02-06T05:01:30.716Z,16.63
2018-02-06T05:02:30.737Z,16.81
2018-02-06T05:03:30.684Z,16.94
2018-02-06T05:04:30.674Z,17.45
2018-02-06T05:05:30.659Z,16.70
2018-02-06T05:06:30.662Z,16.84
2018-02-06T05:07:30.641Z,16.46
2018-02-06T05:08:30.625Z,16.80
2018-02-06T05:09:30.625Z,16.54
2018-02-06T05:10:30.602Z,16.96
2018-02-06T05:11:30.588Z,17.16
2018-02-06T05:12:30.592Z,16.92
2018-02-06T05:13:30.559Z,17.12
2018-02-06T05:14:30.547Z,17.28
2018-02-06T05:15:30.535Z,16.44
2018-02-06T05:16:30.531Z,17.28
2018-02-06T05:17:30.620Z,17.59
2018-02-06T05:18:30.564Z,16.86
2018-02-06T05:19:30.493Z,17.08
2018-02-06T05:20:30.487Z,16.93
2018-02-06T05:21:30.472Z,17.26
2018-02-06T05:22:30.464Z,18.40
2018-02-06T05:23:30.438Z,18.26
2018-02-06T05:24:30.484Z,17.02
2018-02-06T05:25:30.428Z,17.68
2018-02-06T05:26:30.433Z,17.82
2018-02-06T05:27:30.461Z,17.84
2018-02-06T05:28:30.421Z,17.25
2018-02-06T05:29:30.437Z,16.36
2018-02-06T05:30:30.460Z,17.65
2018-02-06T05:31:30.445Z,17.52
2018-02-06T05:32:30.407Z,16.76
2018-02-06T05:33:30.376Z,16.24
2018-02-06T05:34:30.393Z,17.14
2018-02-06T05:35:30.335Z,17.30
2018-02-06T05:36:30.450Z,16.51
2018-02-06T05:37:30.363Z,16.78
2018-02-06T05:38:30.336Z,16.91
2018-02-06T05:39:30.327Z,17.13
2018-02-06T05:40:30.314Z,16.93
2018-02-06T05:41:30.316Z,16.56
2018-02-06T05:42:30.360Z,17.15
2018-02-06T05:43:30.456Z,16.85
2018-02-06T05:44:30.253Z,16.62
2018-02-06T05:45:30.213Z,16.94
2018-02-06T05:46:30.546Z,17.04
2018-02-06T05:47:31.651Z,16.68
2018-02-06T05:48:30.162Z,16.52
2018-02-06T05:49:30.147Z,16.34
2018-02-06T05:50:34.193Z,16.76
2018-02-06T05:51:31.660Z,16.55
2018-02-06T05:52:30.105Z,16.84
2018-02-06T05:53:30.086Z,16.74
2018-02-06T05:54:30.074Z,17.08
2018-02-06T05:55:30.062Z,16.50
2018-02-06T05:56:30.941Z,17.14
2018-02-06T05:57:30.034Z,16.21
2018-02-06T05:58:30.020Z,17.32
2018-02-06T05:59:30.022Z,19.34
2018-02-06T06:00:29.998Z,27.55
2018-02-06T06:01:29.985Z,20.73
2018-02-06T06:02:30.005Z,23.42
2018-02-06T06:03:29.965Z,26.72
2018-02-06T06:04:29.966Z,23.66
2018-02-06T06:05:29.943Z,20.56
2018-02-06T06:06:29.946Z,19.48
2018-02-06T06:07:29.926Z,19.31
2018-02-06T06:08:29.922Z,19.00
2018-02-06T06:09:29.894Z,18.12
2018-02-06T06:10:30.280Z,17.16
2018-02-06T06:11:29.864Z,17.42
2018-02-06T06:12:33.659Z,17.57
2018-02-06T06:13:29.861Z,17.02
2018-02-06T06:14:37.663Z,16.80
2018-02-06T06:15:29.857Z,17.64
2018-02-06T06:16:29.817Z,17.28
2018-02-06T06:17:29.813Z,16.84
2018-02-06T06:18:29.796Z,17.01
2018-02-06T06:19:29.791Z,17.31
2018-02-06T06:20:29.762Z,16.48
2018-02-06T06:21:29.770Z,17.74
2018-02-06T06:22:29.750Z,17.74
2018-02-06T06:23:29.737Z,17.52
2018-02-06T06:24:29.733Z,17.43
2018-02-06T06:25:29.709Z,18.02
2018-02-06T06:26:29.702Z,17.77
2018-02-06T06:27:29.702Z,17.34
2018-02-06T06:28:29.701Z,18.08
2018-02-06T06:29:29.661Z,17.85
2018-02-06T06:30:29.706Z,17.70
2018-02-06T06:31:29.648Z,17.61
2018-02-06T06:32:29.624Z,17.34
2018-02-06T06:33:29.618Z,17.90
2018-02-06T06:34:29.600Z,16.37
2018-02-06T06:35:29.605Z,16.76
2018-02-06T06:36:31.238Z,16.90
2018-02-06T06:37:31.189Z,17.33
2018-02-06T06:38:31.170Z,16.94
2018-02-06T06:39:29.807Z,17.08
2018-02-06T06:40:29.569Z,17.35
2018-02-06T06:41:29.602Z,16.69
2018-02-06T06:42:29.546Z,17.36
2018-02-06T06:43:31.319Z,17.22
2018-02-06T06:44:29.531Z,17.94
2018-02-06T06:45:29.472Z,17.59
2018-02-06T06:46:29.489Z,17.78
2018-02-06T06:47:29.447Z,17.16
2018-02-06T06:48:29.454Z,17.66
2018-02-06T06:49:29.432Z,17.80
2018-02-06T06:50:29.448Z,16.97
2018-02-06T06:51:29.415Z,17.56
2018-02-06T06:52:29.386Z,17.24
2018-02-06T06:53:29.380Z,17.48
2018-02-06T06:54:29.374Z,16.97
2018-02-06T06:55:29.374Z,17.71
2018-02-06T06:56:29.380Z,17.72
2018-02-06T06:57:29.356Z,17.24
2018-02-06T06:58:29.357Z,18.00
2018-02-06T06:59:29.305Z,17.40
2018-02-06T07:00:29.329Z,16.73
2018-02-06T07:01:29.294Z,17.38
2018-02-06T07:02:29.320Z,17.72
2018-02-06T07:03:29.263Z,17.12
2018-02-06T07:04:29.271Z,16.93
2018-02-06T07:05:29.278Z,17.68
2018-02-06T07:06:29.225Z,17.97
2018-02-06T07:07:29.215Z,17.62
2018-02-06T07:08:29.244Z,17.11
2018-02-06T07:09:29.226Z,17.60
2018-02-06T07:10:29.250Z,17.96
2018-02-06T07:11:29.163Z,18.07
2018-02-06T07:12:29.160Z,17.84
2018-02-06T07:13:29.180Z,17.96
2018-02-06T07:14:29.163Z,17.17
2018-02-06T07:15:29.127Z,17.78
2018-02-06T07:16:29.120Z,17.69
2018-02-06T07:17:29.116Z,18.32
2018-02-06T07:18:29.106Z,17.85
2018-02-06T07:19:29.081Z,17.67
2018-02-06T07:20:29.090Z,17.66
2018-02-06T07:21:29.067Z,17.65
2018-02-06T07:22:29.051Z,18.07
2018-02-06T07:23:29.035Z,18.50
2018-02-06T07:24:29.036Z,17.76
2018-02-06T07:25:29.024Z,18.20
2018-02-06T07:26:28.999Z,17.25
2018-02-06T07:27:28.989Z,17.44
2018-02-06T07:28:28.974Z,18.14
2018-02-06T07:29:28.964Z,18.65
2018-02-06T07:30:28.983Z,17.48
2018-02-06T07:31:28.959Z,18.02
2018-02-06T07:32:28.924Z,17.90
2018-02-06T07:33:28.923Z,17.69
2018-02-06T07:34:28.937Z,17.28
2018-02-06T07:35:28.906Z,17.56
2018-02-06T07:36:28.881Z,17.78
2018-02-06T07:37:28.894Z,17.98
2018-02-06T07:38:28.871Z,17.36
2018-02-06T07:39:28.877Z,17.70
2018-02-06T07:40:28.853Z,18.56
2018-02-06T07:41:28.829Z,17.49
2018-02-06T07:42:28.831Z,17.70
2018-02-06T07:43:28.801Z,18.21
2018-02-06T07:44:28.790Z,17.43
2018-02-06T07:45:28.787Z,17.43
2018-02-06T07:46:28.790Z,17.75
2018-02-06T07:47:28.785Z,17.80
2018-02-06T07:48:28.738Z,18.48
2018-02-06T07:49:28.726Z,17.88
2018-02-06T07:50:28.729Z,17.66
2018-02-06T07:51:28.703Z,18.05
2018-02-06T07:52:28.709Z,17.95
2018-02-06T07:53:28.693Z,17.36
2018-02-06T07:54:28.699Z,17.19
2018-02-06T07:55:28.676Z,18.34
2018-02-06T07:56:28.676Z,17.10
2018-02-06T07:57:28.642Z,17.84
2018-02-06T07:58:28.644Z,18.03
2018-02-06T07:59:28.649Z,16.98
2018-02-06T08:00:28.644Z,18.30
2018-02-06T08:01:28.603Z,17.45
2018-02-06T08:02:28.610Z,17.69
2018-02-06T08:03:28.570Z,17.27
2018-02-06T08:03:40.579Z,0.70
2018-02-06T08:05:28.629Z,17.59
2018-02-06T08:06:28.583Z,18.11
2018-02-06T08:07:28.539Z,17.74
2018-02-06T08:08:28.513Z,17.75
2018-02-06T08:09:28.503Z,17.98
2018-02-06T08:10:28.496Z,18.12
2018-02-06T08:11:28.502Z,18.25
2018-02-06T08:12:28.493Z,18.10
2018-02-06T08:13:28.474Z,18.72
2018-02-06T08:14:28.456Z,18.12
2018-02-06T08:15:28.465Z,17.76
2018-02-06T08:16:28.424Z,18.03
2018-02-06T08:17:28.435Z,17.80
2018-02-06T08:18:28.416Z,17.64
2018-02-06T08:19:28.398Z,19.10
2018-02-06T08:20:28.381Z,20.34
2018-02-06T08:21:28.371Z,19.71
2018-02-06T08:22:28.389Z,34.41
2018-02-06T08:23:28.347Z,31.96
2018-02-06T08:24:28.353Z,22.26
2018-02-06T08:25:28.350Z,19.95
2018-02-06T08:26:28.319Z,20.83
2018-02-06T08:27:28.329Z,19.53
2018-02-06T08:28:28.305Z,18.41
2018-02-06T08:29:28.296Z,18.31
2018-02-06T08:30:28.293Z,17.80
2018-02-06T08:31:28.267Z,18.33
2018-02-06T08:32:28.256Z,18.06
2018-02-06T08:33:28.268Z,18.06
2018-02-06T08:34:28.247Z,18.56
2018-02-06T08:35:28.221Z,18.55
2018-02-06T08:36:28.218Z,18.67
2018-02-06T08:37:28.199Z,18.42
2018-02-06T08:38:28.214Z,17.82
2018-02-06T08:39:28.192Z,25.79
2018-02-06T08:40:28.199Z,26.91
2018-02-06T08:41:28.178Z,22.57
2018-02-06T08:42:28.153Z,22.28
2018-02-06T08:43:28.154Z,19.04
2018-02-06T08:44:28.125Z,18.24
2018-02-06T08:45:28.127Z,18.46
2018-02-06T08:46:28.139Z,18.76
2018-02-06T08:47:28.104Z,19.12
2018-02-06T08:48:28.103Z,18.87
2018-02-06T08:49:28.075Z,17.93
2018-02-06T08:50:28.071Z,20.42
2018-02-06T08:51:28.087Z,22.20
2018-02-06T08:52:28.061Z,19.78
2018-02-06T08:53:28.068Z,18.11
2018-02-06T08:54:28.064Z,19.28
2018-02-06T08:55:28.037Z,18.46
2018-02-06T08:56:28.024Z,18.16
2018-02-06T08:57:27.997Z,17.27
2018-02-06T08:58:28.010Z,17.76
2018-02-06T08:59:27.996Z,17.66
2018-02-06T09:00:27.961Z,17.76
2018-02-06T09:01:27.968Z,18.78
2018-02-06T09:02:27.950Z,18.80
2018-02-06T09:03:27.942Z,18.20
2018-02-06T09:04:27.921Z,17.62
2018-02-06T09:05:27.915Z,17.81
2018-02-06T09:06:27.959Z,18.93
2018-02-06T09:07:27.910Z,19.15
2018-02-06T09:08:27.884Z,18.88
2018-02-06T09:09:27.880Z,18.45
2018-02-06T09:10:27.887Z,18.75
2018-02-06T09:11:27.852Z,18.98
2018-02-06T09:12:27.851Z,18.71
2018-02-06T09:13:27.849Z,18.78
2018-02-06T09:14:27.845Z,18.59
2018-02-06T09:15:27.809Z,19.67
2018-02-06T09:16:27.822Z,19.39
2018-02-06T09:17:27.802Z,19.24
2018-02-06T09:18:27.787Z,20.50
2018-02-06T09:19:27.792Z,19.69
2018-02-06T09:20:27.763Z,20.00
2018-02-06T09:21:27.751Z,19.90
2018-02-06T09:22:27.771Z,19.62
2018-02-06T09:23:27.739Z,21.06
2018-02-06T09:24:27.750Z,20.11
2018-02-06T09:25:27.718Z,20.10
2018-02-06T09:26:27.715Z,20.86
2018-02-06T09:27:27.722Z,21.32
2018-02-06T09:28:27.710Z,21.30
2018-02-06T09:29:27.679Z,21.52
2018-02-06T09:30:27.694Z,21.33
2018-02-06T09:31:27.654Z,20.35
2018-02-06T09:32:27.658Z,19.54
2018-02-06T09:33:27.649Z,21.27
2018-02-06T09:34:27.630Z,21.11
2018-02-06T09:35:27.624Z,21.15
2018-02-06T09:36:27.607Z,21.37
2018-02-06T09:37:27.600Z,21.69
2018-02-06T09:38:27.588Z,20.81
2018-02-06T09:39:27.593Z,20.89
2018-02-06T09:40:27.579Z,21.42
2018-02-06T09:41:27.558Z,21.33
2018-02-06T09:42:27.561Z,22.54
2018-02-06T09:43:27.548Z,22.49
2018-02-06T09:44:27.520Z,21.57
2018-02-06T09:45:27.562Z,21.88
2018-02-06T09:46:27.522Z,21.43
2018-02-06T09:47:27.526Z,22.22
2018-02-06T09:48:27.484Z,21.63
2018-02-06T09:49:27.480Z,22.52
2018-02-06T09:50:27.471Z,22.32
2018-02-06T09:51:27.450Z,21.91
2018-02-06T09:52:27.462Z,23.11
2018-02-06T09:53:27.430Z,23.47
2018-02-06T09:54:27.422Z,22.51
2018-02-06T09:55:27.410Z,22.98
2018-02-06T09:56:27.404Z,23.46
2018-02-06T09:57:27.439Z,22.40
2018-02-06T09:58:27.418Z,23.26
2018-02-06T09:59:27.378Z,23.70
2018-02-06T10:00:27.362Z,23.51
2018-02-06T10:01:27.361Z,22.81
2018-02-06T10:02:27.340Z,23.10
2018-02-06T10:03:27.450Z,23.16
2018-02-06T10:04:27.535Z,25.12
2018-02-06T10:05:27.317Z,24.36
2018-02-06T10:06:27.339Z,23.88
2018-02-06T10:07:27.327Z,22.24
2018-02-06T10:08:27.302Z,22.42
2018-02-06T10:09:27.267Z,22.50
2018-02-06T10:10:27.265Z,23.72
2018-02-06T10:11:27.260Z,24.21
2018-02-06T10:12:27.257Z,23.90
2018-02-06T10:13:27.281Z,23.78
2018-02-06T10:14:27.308Z,24.04
2018-02-06T10:15:27.220Z,23.83
2018-02-06T10:16:27.231Z,24.12
2018-02-06T10:17:27.195Z,24.21
2018-02-06T10:18:27.184Z,23.97
2018-02-06T10:19:27.184Z,23.49
2018-02-06T10:20:27.168Z,23.00
2018-02-06T10:21:27.162Z,23.23
2018-02-06T10:22:27.146Z,22.83
2018-02-06T10:23:27.368Z,23.45
2018-02-06T10:24:27.132Z,22.72
2018-02-06T10:25:27.130Z,22.51
2018-02-06T10:26:27.114Z,22.36
2018-02-06T10:27:27.117Z,21.42
2018-02-06T10:28:27.097Z,22.16
2018-02-06T10:29:27.081Z,23.08
2018-02-06T10:30:27.118Z,23.07
2018-02-06T10:31:27.076Z,22.48
2018-02-06T10:32:27.072Z,21.99
2018-02-06T10:33:27.058Z,21.00
2018-02-06T10:34:27.043Z,23.34
2018-02-06T10:35:27.021Z,22.45
2018-02-06T10:36:27.045Z,22.88
2018-02-06T10:37:26.997Z,23.28
2018-02-06T10:38:27.015Z,22.30
2018-02-06T10:39:26.979Z,22.43
2018-02-06T10:40:27.042Z,21.90
2018-02-06T10:41:26.968Z,22.51
2018-02-06T10:42:26.953Z,22.78
2018-02-06T10:43:26.954Z,22.20
2018-02-06T10:44:26.947Z,23.28
2018-02-06T10:45:26.920Z,22.86
2018-02-06T10:46:26.915Z,22.37
2018-02-06T10:47:26.897Z,22.22
2018-02-06T10:48:26.909Z,22.04
2018-02-06T10:49:26.885Z,22.80
2018-02-06T10:50:26.878Z,22.76
2018-02-06T10:51:26.867Z,23.44
2018-02-06T10:52:26.871Z,23.22
2018-02-06T10:53:26.864Z,22.03
2018-02-06T10:54:26.856Z,23.27
2018-02-06T10:55:26.851Z,23.28
2018-02-06T10:56:26.814Z,22.38
2018-02-06T10:57:26.828Z,22.86
2018-02-06T10:58:26.796Z,22.96
2018-02-06T10:59:26.791Z,23.40
2018-02-06T11:00:26.804Z,23.43
2018-02-06T11:01:26.758Z,23.00
2018-02-06T11:02:26.765Z,23.60
2018-02-06T11:03:26.758Z,22.97
2018-02-06T11:04:26.732Z,21.81
2018-02-06T11:05:26.747Z,22.47
2018-02-06T11:06:26.728Z,23.00
2018-02-06T11:07:26.732Z,23.06
2018-02-06T11:08:26.700Z,23.03
2018-02-06T11:09:26.684Z,23.38
2018-02-06T11:10:26.686Z,22.32
2018-02-06T11:11:26.675Z,22.84
2018-02-06T11:12:26.664Z,22.77
2018-02-06T11:13:26.698Z,22.13
2018-02-06T11:14:26.636Z,22.60
2018-02-06T11:15:26.649Z,23.36
2018-02-06T11:16:26.609Z,22.13
2018-02-06T11:17:26.622Z,21.44
2018-02-06T11:18:26.588Z,22.00
2018-02-06T11:19:26.602Z,22.21
2018-02-06T11:20:26.570Z,22.48
2018-02-06T11:21:26.570Z,21.60
2018-02-06T11:22:26.559Z,22.02
2018-02-06T11:23:26.543Z,21.51
2018-02-06T11:24:26.568Z,21.52
2018-02-06T11:25:26.542Z,21.08
2018-02-06T11:26:26.585Z,21.90
2018-02-06T11:27:26.525Z,22.32
2018-02-06T11:28:26.494Z,21.82
2018-02-06T11:29:26.489Z,20.76
2018-02-06T11:30:26.463Z,21.18
2018-02-06T11:31:26.470Z,21.22
2018-02-06T11:32:26.491Z,20.86
2018-02-06T11:33:26.441Z,21.73
2018-02-06T11:34:26.433Z,20.47
2018-02-06T11:35:26.441Z,21.91
2018-02-06T11:36:26.422Z,21.54
2018-02-06T11:37:26.402Z,21.35
2018-02-06T11:38:26.404Z,21.34
2018-02-06T11:39:26.382Z,21.22
2018-02-06T11:40:26.387Z,20.43
2018-02-06T11:41:26.371Z,20.52
2018-02-06T11:42:26.373Z,20.91
2018-02-06T11:43:26.377Z,21.12
2018-02-06T11:44:26.332Z,21.14
2018-02-06T11:45:26.326Z,20.90
2018-02-06T11:46:26.323Z,21.68
2018-02-06T11:47:26.314Z,21.63
2018-02-06T11:48:26.295Z,21.06
2018-02-06T11:49:26.297Z,22.55
2018-02-06T11:50:26.283Z,21.29
2018-02-06T11:51:26.266Z,21.38
2018-02-06T11:52:26.316Z,21.51
2018-02-06T11:53:26.261Z,21.54
2018-02-06T11:54:26.231Z,21.51
2018-02-06T11:55:26.232Z,20.76
2018-02-06T11:56:26.252Z,21.04
2018-02-06T11:57:26.202Z,21.31
2018-02-06T11:58:26.213Z,21.57
2018-02-06T11:59:26.189Z,21.47
2018-02-06T12:00:26.187Z,21.58
2018-02-06T12:01:26.158Z,21.43
2018-02-06T12:02:26.160Z,21.68
2018-02-06T12:03:26.153Z,20.44
2018-02-06T12:04:26.136Z,21.36
2018-02-06T12:05:26.152Z,22.03
2018-02-06T12:06:26.166Z,22.70
2018-02-06T12:07:26.123Z,22.03
2018-02-06T12:08:26.117Z,21.35
2018-02-06T12:09:26.095Z,22.36
2018-02-06T12:10:26.081Z,21.75
2018-02-06T12:11:26.077Z,22.41
2018-02-06T12:12:26.064Z,22.16
2018-02-06T12:13:26.103Z,21.90
2018-02-06T12:14:26.052Z,22.14
2018-02-06T12:15:26.027Z,23.42
2018-02-06T12:16:26.038Z,21.81
2018-02-06T12:17:26.010Z,22.01
2018-02-06T12:18:26.016Z,22.10
2018-02-06T12:19:26.113Z,22.08
2018-02-06T12:20:26.024Z,22.00
2018-02-06T12:21:26.033Z,22.45
2018-02-06T12:22:25.961Z,21.78
2018-02-06T12:23:25.949Z,22.17
2018-02-06T12:24:25.940Z,22.55
2018-02-06T12:25:25.927Z,22.79
2018-02-06T12:26:25.934Z,22.58
2018-02-06T12:27:25.918Z,22.39
2018-02-06T12:28:25.942Z,22.30
2018-02-06T12:29:25.893Z,22.73
2018-02-06T12:30:25.890Z,22.77
2018-02-06T12:31:25.874Z,22.24
2018-02-06T12:32:25.873Z,22.38
2018-02-06T12:33:25.882Z,22.22
2018-02-06T12:34:25.844Z,22.82
2018-02-06T12:35:25.839Z,22.64
2018-02-06T12:36:25.838Z,22.22
2018-02-06T12:37:25.810Z,22.59
2018-02-06T12:38:25.866Z,21.45
2018-02-06T12:39:25.819Z,22.04
2018-02-06T12:40:25.837Z,22.15
2018-02-06T12:41:25.773Z,21.98
2018-02-06T12:42:25.780Z,22.68
2018-02-06T12:43:25.752Z,22.19
2018-02-06T12:44:25.749Z,22.00
2018-02-06T12:45:25.746Z,21.52
2018-02-06T12:46:26.707Z,22.37
2018-02-06T12:47:25.713Z,21.28
2018-02-06T12:48:25.718Z,21.80
2018-02-06T12:49:25.692Z,22.23
2018-02-06T12:50:25.692Z,21.84
2018-02-06T12:51:25.703Z,22.78
2018-02-06T12:52:25.702Z,21.82
2018-02-06T12:53:25.694Z,22.26
2018-02-06T12:54:25.657Z,22.56
2018-02-06T12:55:25.661Z,22.71
2018-02-06T12:56:25.641Z,22.00
2018-02-06T12:57:25.643Z,22.49
2018-02-06T12:58:25.699Z,23.04
2018-02-06T12:59:25.642Z,24.10
2018-02-06T13:00:25.614Z,25.32
2018-02-06T13:01:25.596Z,23.06
2018-02-06T13:02:25.599Z,22.50
2018-02-06T13:03:25.598Z,23.62
2018-02-06T13:04:25.608Z,25.04
2018-02-06T13:05:25.718Z,23.40
2018-02-06T13:06:25.582Z,25.41
2018-02-06T13:07:25.928Z,26.48
2018-02-06T13:08:25.536Z,26.13
2018-02-06T13:09:25.547Z,27.28
2018-02-06T13:10:25.641Z,24.25
2018-02-06T13:11:25.513Z,23.66
2018-02-06T13:12:25.640Z,24.26
2018-02-06T13:12:37.549Z,1.02
2018-02-06T13:14:25.522Z,27.47
2018-02-06T13:15:25.467Z,25.64
2018-02-06T13:16:25.461Z,25.41
2018-02-06T13:17:25.439Z,24.03
2018-02-06T13:18:25.426Z,22.74
2018-02-06T13:19:25.420Z,23.29
2018-02-06T13:20:25.570Z,22.77
2018-02-06T13:21:25.416Z,24.74
2018-02-06T13:22:25.385Z,26.76
2018-02-06T13:23:25.401Z,26.12
2018-02-06T13:24:25.416Z,29.06
2018-02-06T13:25:25.349Z,26.54
2018-02-06T13:26:25.359Z,28.14
2018-02-06T13:27:25.366Z,27.54
2018-02-06T13:28:25.326Z,23.29
2018-02-06T13:29:25.326Z,23.00
2018-02-06T13:30:25.304Z,23.47
2018-02-06T13:31:25.329Z,24.08
2018-02-06T13:32:25.307Z,29.94
2018-02-06T13:33:25.297Z,29.96
2018-02-06T13:34:25.335Z,25.76
2018-02-06T13:35:25.269Z,23.36
2018-02-06T13:36:25.351Z,22.82
2018-02-06T13:37:25.253Z,23.90
2018-02-06T13:38:25.298Z,23.29
2018-02-06T13:39:25.221Z,23.58
2018-02-06T13:40:25.213Z,26.95
2018-02-06T13:41:25.213Z,27.68
2018-02-06T13:42:25.232Z,25.15
2018-02-06T13:43:25.195Z,28.18
2018-02-06T13:44:25.189Z,29.60
2018-02-06T13:45:25.170Z,24.94
2018-02-06T13:46:25.195Z,22.88
2018-02-06T13:47:25.199Z,23.97
2018-02-06T13:48:25.169Z,24.32
2018-02-06T13:49:25.132Z,23.83
2018-02-06T13:50:25.123Z,23.84
2018-02-06T13:51:25.130Z,24.56
2018-02-06T13:52:25.165Z,27.52
2018-02-06T13:53:25.092Z,24.68
2018-02-06T13:54:25.097Z,24.76
2018-02-06T13:55:25.093Z,25.91
2018-02-06T13:56:25.065Z,24.42
2018-02-06T13:57:25.054Z,24.72
2018-02-06T13:58:25.042Z,24.88
2018-02-06T13:59:25.031Z,27.13
2018-02-06T14:00:25.047Z,27.94
2018-02-06T14:01:25.043Z,27.66
2018-02-06T14:02:25.021Z,26.13
2018-02-06T14:03:24.995Z,26.74
2018-02-06T14:04:25.051Z,29.80
2018-02-06T14:05:24.998Z,31.26
2018-02-06T14:06:24.973Z,27.92
2018-02-06T14:07:25.035Z,32.15
2018-02-06T14:08:24.974Z,30.35
2018-02-06T14:09:24.953Z,26.69
2018-02-06T14:10:24.937Z,25.56
2018-02-06T14:11:24.925Z,25.02
2018-02-06T14:12:24.926Z,25.96
2018-02-06T14:13:24.902Z,26.46
2018-02-06T14:14:24.896Z,26.37
2018-02-06T14:15:24.890Z,25.53
2018-02-06T14:16:24.869Z,25.50
2018-02-06T14:17:24.859Z,26.61
2018-02-06T14:18:24.876Z,28.37
2018-02-06T14:19:24.873Z,30.68
2018-02-06T14:20:24.846Z,27.02
2018-02-06T14:21:24.878Z,27.51
2018-02-06T14:22:24.816Z,26.25
2018-02-06T14:23:24.815Z,26.06
2018-02-06T14:24:24.808Z,25.36
2018-02-06T14:25:24.798Z,25.49
2018-02-06T14:26:24.777Z,26.12
2018-02-06T14:27:24.781Z,27.25
2018-02-06T14:28:24.765Z,26.38
2018-02-06T14:29:24.755Z,25.71
2018-02-06T14:30:24.769Z,26.06
2018-02-06T14:31:24.740Z,26.46
2018-02-06T14:32:24.717Z,25.50
2018-02-06T14:33:24.705Z,25.36
2018-02-06T14:34:24.708Z,26.68
2018-02-06T14:35:24.686Z,26.73
2018-02-06T14:36:24.686Z,26.04
2018-02-06T14:37:24.666Z,26.92
2018-02-06T14:38:24.661Z,26.99
2018-02-06T14:39:24.669Z,26.97
2018-02-06T14:40:24.663Z,26.28
2018-02-06T14:41:24.680Z,26.42
2018-02-06T14:42:24.623Z,27.30
2018-02-06T14:43:24.614Z,27.42
2018-02-06T14:44:24.603Z,27.71
2018-02-06T14:45:24.607Z,27.51
2018-02-06T14:46:24.605Z,26.53
2018-02-06T14:47:24.573Z,26.95
2018-02-06T14:48:24.589Z,26.17
2018-02-06T14:49:24.546Z,26.00
2018-02-06T14:50:24.567Z,26.60
2018-02-06T14:51:24.565Z,26.89
2018-02-06T14:52:24.527Z,26.29
2018-02-06T14:53:24.518Z,25.86
2018-02-06T14:54:24.520Z,25.56
2018-02-06T14:55:24.560Z,25.18
2018-02-06T14:56:24.493Z,25.41
2018-02-06T14:57:24.476Z,25.49
2018-02-06T14:58:24.460Z,25.92
2018-02-06T14:59:24.451Z,26.62
2018-02-06T15:00:24.444Z,25.74
2018-02-06T15:01:24.434Z,26.90
2018-02-06T15:02:24.461Z,26.72
2018-02-06T15:03:24.427Z,26.21
2018-02-06T15:04:24.415Z,25.98
2018-02-06T15:05:24.419Z,25.90
2018-02-06T15:06:24.379Z,25.97
2018-02-06T15:07:24.363Z,26.06
2018-02-06T15:08:24.359Z,26.74
2018-02-06T15:09:24.347Z,26.56
2018-02-06T15:10:24.394Z,26.47
2018-02-06T15:10:36.351Z,1.10
2018-02-06T15:12:24.328Z,26.76
2018-02-06T15:13:24.302Z,25.82
2018-02-06T15:14:24.326Z,26.26
2018-02-06T15:15:24.294Z,26.49
2018-02-06T15:16:24.349Z,26.14
2018-02-06T15:17:24.272Z,26.09
2018-02-06T15:18:24.260Z,26.83
2018-02-06T15:19:24.252Z,25.86
2018-02-06T15:20:24.269Z,26.46
2018-02-06T15:21:24.293Z,27.41
2018-02-06T15:22:24.247Z,26.93
2018-02-06T15:23:24.233Z,26.76
2018-02-06T15:24:24.226Z,26.00
2018-02-06T15:25:24.179Z,26.38
2018-02-06T15:26:24.193Z,26.66
2018-02-06T15:27:24.156Z,26.95
2018-02-06T15:28:24.174Z,28.04
2018-02-06T15:29:24.139Z,26.86
2018-02-06T15:30:24.149Z,26.18
2018-02-06T15:31:24.121Z,27.10
2018-02-06T15:32:24.111Z,26.94
2018-02-06T15:33:24.102Z,26.80
2018-02-06T15:34:24.096Z,27.30
2018-02-06T15:35:24.112Z,27.75
2018-02-06T15:36:24.082Z,26.61
2018-02-06T15:37:24.065Z,26.85
2018-02-06T15:38:24.051Z,27.74
2018-02-06T15:39:24.051Z,29.61
2018-02-06T15:40:24.032Z,27.43
2018-02-06T15:41:24.016Z,26.10
2018-02-06T15:42:24.044Z,26.70
2018-02-06T15:43:24.003Z,26.36
2018-02-06T15:44:23.990Z,27.98
2018-02-06T15:45:23.998Z,28.24
2018-02-06T15:46:23.969Z,26.45
2018-02-06T15:47:23.958Z,27.33
2018-02-06T15:48:23.947Z,26.63
2018-02-06T15:49:23.939Z,27.30
2018-02-06T15:50:23.952Z,25.72
2018-02-06T15:51:23.917Z,25.98
2018-02-06T15:52:23.942Z,26.16
2018-02-06T15:53:23.925Z,27.16
2018-02-06T15:54:23.883Z,27.72
2018-02-06T15:55:23.874Z,26.92
2018-02-06T15:56:23.874Z,27.12
2018-02-06T15:57:23.879Z,27.18
2018-02-06T15:58:23.835Z,26.03
2018-02-06T15:59:23.849Z,25.89
2018-02-06T16:00:23.821Z,26.00
2018-02-06T16:01:23.821Z,26.70
2018-02-06T16:02:23.807Z,26.91
2018-02-06T16:03:23.790Z,26.67
2018-02-06T16:04:23.778Z,27.46
2018-02-06T16:05:23.782Z,27.08
2018-02-06T16:06:23.760Z,26.11
2018-02-06T16:07:23.741Z,26.79
2018-02-06T16:08:23.743Z,27.25
2018-02-06T16:09:23.728Z,26.43
2018-02-06T16:10:23.724Z,25.79
2018-02-06T16:11:23.797Z,26.43
2018-02-06T16:12:23.795Z,27.07
2018-02-06T16:13:23.676Z,26.36
2018-02-06T16:14:23.678Z,26.10
2018-02-06T16:15:23.654Z,27.20
2018-02-06T16:16:23.653Z,27.57
2018-02-06T16:17:23.646Z,27.46
2018-02-06T16:18:23.628Z,26.50
2018-02-06T16:19:23.616Z,26.06
2018-02-06T16:20:23.608Z,26.47
2018-02-06T16:21:23.625Z,26.55
2018-02-06T16:22:23.585Z,27.32
2018-02-06T16:23:23.591Z,26.52
2018-02-06T16:24:23.586Z,28.64
2018-02-06T16:25:23.580Z,27.92
2018-02-06T16:26:23.565Z,26.92
2018-02-06T16:27:23.564Z,27.53
2018-02-06T16:28:23.537Z,27.48
2018-02-06T16:29:23.510Z,28.68
2018-02-06T16:30:23.523Z,27.95
2018-02-06T16:31:23.497Z,27.89
2018-02-06T16:32:23.472Z,27.68
2018-02-06T16:33:23.501Z,28.35
2018-02-06T16:34:23.457Z,28.28
2018-02-06T16:35:23.443Z,29.08
2018-02-06T16:36:23.453Z,27.84
2018-02-06T16:37:23.435Z,27.84
2018-02-06T16:38:23.425Z,28.16
2018-02-06T16:39:23.395Z,27.87
2018-02-06T16:40:23.391Z,29.00
2018-02-06T16:41:23.373Z,30.33
2018-02-06T16:42:23.380Z,30.03
2018-02-06T16:43:23.374Z,29.41
2018-02-06T16:44:23.343Z,29.44
2018-02-06T16:45:23.356Z,28.70
2018-02-06T16:46:23.333Z,29.69
2018-02-06T16:47:23.358Z,30.41
2018-02-06T16:48:23.335Z,29.20
2018-02-06T16:49:23.300Z,30.52
2018-02-06T16:50:23.267Z,30.44
2018-02-06T16:51:23.266Z,29.63
2018-02-06T16:52:23.289Z,29.84
2018-02-06T16:53:23.247Z,29.31
2018-02-06T16:54:23.251Z,30.47
2018-02-06T16:55:23.228Z,31.18
2018-02-06T16:56:23.247Z,29.95
2018-02-06T16:57:23.218Z,29.48
2018-02-06T16:58:23.196Z,30.02
2018-02-06T16:59:23.238Z,30.78
2018-02-06T17:00:23.197Z,29.94
2018-02-06T17:01:23.168Z,30.40
2018-02-06T17:02:23.161Z,30.40
2018-02-06T17:03:23.148Z,30.20
2018-02-06T17:04:23.126Z,30.68
2018-02-06T17:05:23.138Z,30.47
2018-02-06T17:06:23.099Z,30.82
2018-02-06T17:07:23.083Z,31.94
2018-02-06T17:08:23.079Z,32.82
2018-02-06T17:09:23.069Z,32.66
2018-02-06T17:10:23.074Z,30.20
2018-02-06T17:11:23.041Z,31.20
2018-02-06T17:12:23.044Z,31.21
2018-02-06T17:13:23.031Z,31.40
2018-02-06T17:14:23.036Z,31.10
2018-02-06T17:15:23.001Z,32.55
2018-02-06T17:16:23.003Z,31.22
2018-02-06T17:17:23.045Z,32.67
2018-02-06T17:18:22.983Z,31.60
2018-02-06T17:19:22.977Z,32.64
2018-02-06T17:20:22.944Z,32.34
2018-02-06T17:21:22.956Z,31.62
2018-02-06T17:22:22.930Z,31.98
2018-02-06T17:23:22.949Z,32.02
2018-02-06T17:24:22.928Z,32.26
2018-02-06T17:25:22.897Z,33.06
2018-02-06T17:26:22.895Z,32.45
2018-02-06T17:27:22.868Z,31.94
2018-02-06T17:28:22.881Z,31.65
2018-02-06T17:29:22.862Z,31.62
2018-02-06T17:30:22.858Z,32.56